sensor_id;sensor_type;location;lat;lon;timestamp;P1;durP1;ratioP1;P2;durP2;ratioP2
60999;SDS011;46879;45.658;11.814;2023-05-07T00:04:38;6.95;;;3.58;;
60999;SDS011;46879;45.658;11.814;2023-05-07T00:09:38;5.07;;;3.83;;
60999;SDS011;46879;45.658;11.814;2023-05-07T00:14:39;5.00;;;3.58;;
60999;SDS011;46879;45.658;11.814;2023-05-07T00:19:40;5.20;;;3.60;;
60999;SDS011;46879;45.658;11.814;2023-05-07T00:24:41;5.05;;;3.50;;
60999;SDS011;46879;45.658;11.814;2023-05-07T00:29:42;11.02;;;4.07;;
60999;SDS011;46879;45.658;11.814;2023-05-07T00:34:43;5.03;;;3.40;;
60999;SDS011;46879;45.658;11.814;2023-05-07T00:39:44;4.70;;;3.58;;
60999;SDS011;46879;45.658;11.814;2023-05-07T00:44:44;6.45;;;3.60;;
60999;SDS011;46879;45.658;11.814;2023-05-07T00:49:45;4.97;;;3.67;;
60999;SDS011;46879;45.658;11.814;2023-05-07T00:54:45;6.57;;;3.60;;
60999;SDS011;46879;45.658;11.814;2023-05-07T00:59:46;4.03;;;3.30;;
60999;SDS011;46879;45.658;11.814;2023-05-07T01:04:47;5.07;;;3.65;;
60999;SDS011;46879;45.658;11.814;2023-05-07T01:09:47;7.25;;;3.80;;
60999;SDS011;46879;45.658;11.814;2023-05-07T01:14:48;3.88;;;3.33;;
60999;SDS011;46879;45.658;11.814;2023-05-07T01:19:50;6.72;;;3.60;;
60999;SDS011;46879;45.658;11.814;2023-05-07T01:24:52;5.68;;;3.13;;
60999;SDS011;46879;45.658;11.814;2023-05-07T01:29:54;3.53;;;3.20;;
60999;SDS011;46879;45.658;11.814;2023-05-07T01:34:55;4.72;;;3.15;;
60999;SDS011;46879;45.658;11.814;2023-05-07T01:39:58;6.50;;;3.72;;
60999;SDS011;46879;45.658;11.814;2023-05-07T01:45:00;3.88;;;3.45;;
60999;SDS011;46879;45.658;11.814;2023-05-07T01:50:01;4.05;;;3.42;;
60999;SDS011;46879;45.658;11.814;2023-05-07T01:55:02;3.47;;;2.80;;
60999;SDS011;46879;45.658;11.814;2023-05-07T02:00:02;5.70;;;3.30;;
60999;SDS011;46879;45.658;11.814;2023-05-07T02:05:05;6.18;;;3.47;;
60999;SDS011;46879;45.658;11.814;2023-05-07T02:10:06;5.32;;;3.15;;
60999;SDS011;46879;45.658;11.814;2023-05-07T02:15:07;3.55;;;3.00;;
60999;SDS011;46879;45.658;11.814;2023-05-07T02:20:08;3.25;;;2.95;;
60999;SDS011;46879;45.658;11.814;2023-05-07T02:25:13;4.30;;;3.05;;
60999;SDS011;46879;45.658;11.814;2023-05-07T02:30:13;5.70;;;3.33;;
60999;SDS011;46879;45.658;11.814;2023-05-07T02:35:15;4.70;;;3.22;;
60999;SDS011;46879;45.658;11.814;2023-05-07T02:40:15;3.40;;;3.10;;
60999;SDS011;46879;45.658;11.814;2023-05-07T02:45:16;4.28;;;2.78;;
60999;SDS011;46879;45.658;11.814;2023-05-07T02:50:16;3.50;;;2.90;;
60999;SDS011;46879;45.658;11.814;2023-05-07T02:55:17;4.40;;;3.08;;
60999;SDS011;46879;45.658;11.814;2023-05-07T03:00:18;4.47;;;3.13;;
60999;SDS011;46879;45.658;11.814;2023-05-07T03:05:20;4.45;;;3.03;;
60999;SDS011;46879;45.658;11.814;2023-05-07T03:10:20;3.55;;;2.97;;
60999;SDS011;46879;45.658;11.814;2023-05-07T03:15:21;3.50;;;2.92;;
60999;SDS011;46879;45.658;11.814;2023-05-07T03:20:22;3.47;;;3.17;;
60999;SDS011;46879;45.658;11.814;2023-05-07T03:25:22;3.83;;;2.78;;
60999;SDS011;46879;45.658;11.814;2023-05-07T03:30:23;7.15;;;2.70;;
60999;SDS011;46879;45.658;11.814;2023-05-07T03:35:24;4.13;;;2.95;;
60999;SDS011;46879;45.658;11.814;2023-05-07T03:40:24;7.50;;;3.08;;
60999;SDS011;46879;45.658;11.814;2023-05-07T03:45:25;5.80;;;3.15;;
60999;SDS011;46879;45.658;11.814;2023-05-07T03:50:26;4.22;;;2.70;;
60999;SDS011;46879;45.658;11.814;2023-05-07T03:55:26;3.03;;;2.72;;
60999;SDS011;46879;45.658;11.814;2023-05-07T04:00:27;3.40;;;2.72;;
60999;SDS011;46879;45.658;11.814;2023-05-07T04:05:28;3.72;;;3.10;;
60999;SDS011;46879;45.658;11.814;2023-05-07T04:10:29;4.03;;;3.05;;
60999;SDS011;46879;45.658;11.814;2023-05-07T04:15:29;3.20;;;2.83;;
60999;SDS011;46879;45.658;11.814;2023-05-07T04:20:30;4.88;;;2.80;;
60999;SDS011;46879;45.658;11.814;2023-05-07T04:25:30;5.60;;;2.80;;
60999;SDS011;46879;45.658;11.814;2023-05-07T04:30:31;3.05;;;2.72;;
60999;SDS011;46879;45.658;11.814;2023-05-07T04:35:32;2.60;;;2.40;;
60999;SDS011;46879;45.658;11.814;2023-05-07T04:40:32;3.00;;;2.45;;
60999;SDS011;46879;45.658;11.814;2023-05-07T04:45:35;3.63;;;2.80;;
60999;SDS011;46879;45.658;11.814;2023-05-07T04:50:36;2.65;;;2.45;;
60999;SDS011;46879;45.658;11.814;2023-05-07T04:55:37;2.88;;;2.58;;
60999;SDS011;46879;45.658;11.814;2023-05-07T05:00:39;2.53;;;2.17;;
60999;SDS011;46879;45.658;11.814;2023-05-07T05:05:40;3.60;;;2.63;;
60999;SDS011;46879;45.658;11.814;2023-05-07T05:10:40;2.70;;;2.50;;
60999;SDS011;46879;45.658;11.814;2023-05-07T05:15:42;3.95;;;2.75;;
60999;SDS011;46879;45.658;11.814;2023-05-07T05:20:43;2.75;;;2.55;;
60999;SDS011;46879;45.658;11.814;2023-05-07T05:25:43;2.55;;;2.35;;
60999;SDS011;46879;45.658;11.814;2023-05-07T05:30:44;2.78;;;2.58;;
60999;SDS011;46879;45.658;11.814;2023-05-07T05:35:45;3.15;;;2.40;;
60999;SDS011;46879;45.658;11.814;2023-05-07T05:40:45;2.95;;;2.65;;
60999;SDS011;46879;45.658;11.814;2023-05-07T05:45:46;4.07;;;2.30;;
60999;SDS011;46879;45.658;11.814;2023-05-07T05:50:47;3.33;;;2.63;;
60999;SDS011;46879;45.658;11.814;2023-05-07T05:55:47;3.00;;;2.78;;
60999;SDS011;46879;45.658;11.814;2023-05-07T06:00:48;2.75;;;2.42;;
60999;SDS011;46879;45.658;11.814;2023-05-07T06:05:52;2.90;;;2.60;;
60999;SDS011;46879;45.658;11.814;2023-05-07T06:10:52;3.13;;;2.58;;
60999;SDS011;46879;45.658;11.814;2023-05-07T06:15:53;2.60;;;2.33;;
60999;SDS011;46879;45.658;11.814;2023-05-07T06:20:53;2.15;;;2.03;;
60999;SDS011;46879;45.658;11.814;2023-05-07T06:25:54;3.55;;;2.40;;
60999;SDS011;46879;45.658;11.814;2023-05-07T06:30:55;2.63;;;2.33;;
60999;SDS011;46879;45.658;11.814;2023-05-07T06:35:55;2.60;;;2.40;;
60999;SDS011;46879;45.658;11.814;2023-05-07T06:40:56;2.28;;;2.10;;
60999;SDS011;46879;45.658;11.814;2023-05-07T06:45:57;2.70;;;2.50;;
60999;SDS011;46879;45.658;11.814;2023-05-07T06:50:57;5.80;;;3.63;;
60999;SDS011;46879;45.658;11.814;2023-05-07T06:55:58;3.70;;;3.40;;
60999;SDS011;46879;45.658;11.814;2023-05-07T07:00:58;3.67;;;3.33;;
60999;SDS011;46879;45.658;11.814;2023-05-07T07:05:59;3.90;;;3.50;;
60999;SDS011;46879;45.658;11.814;2023-05-07T07:11:02;10.27;;;3.97;;
60999;SDS011;46879;45.658;11.814;2023-05-07T07:16:02;7.30;;;4.55;;
60999;SDS011;46879;45.658;11.814;2023-05-07T07:21:03;7.30;;;4.20;;
60999;SDS011;46879;45.658;11.814;2023-05-07T07:26:04;20.80;;;5.00;;
60999;SDS011;46879;45.658;11.814;2023-05-07T07:31:05;5.43;;;4.72;;
60999;SDS011;46879;45.658;11.814;2023-05-07T07:36:06;5.65;;;4.95;;
60999;SDS011;46879;45.658;11.814;2023-05-07T07:41:07;7.25;;;4.75;;
60999;SDS011;46879;45.658;11.814;2023-05-07T07:46:09;5.63;;;5.10;;
60999;SDS011;46879;45.658;11.814;2023-05-07T07:51:10;9.48;;;4.00;;
60999;SDS011;46879;45.658;11.814;2023-05-07T07:56:10;10.75;;;4.20;;
60999;SDS011;46879;45.658;11.814;2023-05-07T08:01:12;5.32;;;3.65;;
60999;SDS011;46879;45.658;11.814;2023-05-07T08:06:12;6.70;;;3.38;;
60999;SDS011;46879;45.658;11.814;2023-05-07T08:11:13;5.07;;;3.75;;
60999;SDS011;46879;45.658;11.814;2023-05-07T08:16:14;6.50;;;3.60;;
60999;SDS011;46879;45.658;11.814;2023-05-07T08:21:15;4.10;;;3.60;;
60999;SDS011;46879;45.658;11.814;2023-05-07T08:26:15;5.03;;;3.90;;
60999;SDS011;46879;45.658;11.814;2023-05-07T08:31:16;4.82;;;4.03;;
60999;SDS011;46879;45.658;11.814;2023-05-07T08:36:17;6.53;;;4.15;;
60999;SDS011;46879;45.658;11.814;2023-05-07T08:41:19;4.13;;;3.70;;
60999;SDS011;46879;45.658;11.814;2023-05-07T08:46:21;5.20;;;3.88;;
60999;SDS011;46879;45.658;11.814;2023-05-07T08:51:22;4.60;;;3.95;;
60999;SDS011;46879;45.658;11.814;2023-05-07T08:56:22;4.00;;;3.45;;
60999;SDS011;46879;45.658;11.814;2023-05-07T09:01:23;6.38;;;3.65;;
60999;SDS011;46879;45.658;11.814;2023-05-07T09:06:24;9.05;;;4.15;;
60999;SDS011;46879;45.658;11.814;2023-05-07T09:11:26;6.45;;;3.72;;
60999;SDS011;46879;45.658;11.814;2023-05-07T09:16:28;6.30;;;3.75;;
60999;SDS011;46879;45.658;11.814;2023-05-07T09:21:30;6.35;;;3.20;;
60999;SDS011;46879;45.658;11.814;2023-05-07T09:26:31;5.70;;;3.72;;
60999;SDS011;46879;45.658;11.814;2023-05-07T09:31:36;3.72;;;3.30;;
60999;SDS011;46879;45.658;11.814;2023-05-07T09:36:37;5.75;;;3.50;;
60999;SDS011;46879;45.658;11.814;2023-05-07T09:41:46;4.07;;;3.17;;
60999;SDS011;46879;45.658;11.814;2023-05-07T09:46:53;5.70;;;4.05;;
60999;SDS011;46879;45.658;11.814;2023-05-07T09:51:55;4.88;;;3.80;;
60999;SDS011;46879;45.658;11.814;2023-05-07T09:56:56;4.75;;;4.30;;
60999;SDS011;46879;45.658;11.814;2023-05-07T10:01:58;4.40;;;4.00;;
60999;SDS011;46879;45.658;11.814;2023-05-07T10:07:01;5.75;;;4.00;;
60999;SDS011;46879;45.658;11.814;2023-05-07T10:12:03;8.77;;;3.92;;
60999;SDS011;46879;45.658;11.814;2023-05-07T10:17:04;7.32;;;3.80;;
60999;SDS011;46879;45.658;11.814;2023-05-07T10:22:06;10.35;;;4.35;;
60999;SDS011;46879;45.658;11.814;2023-05-07T10:27:10;7.20;;;4.47;;
60999;SDS011;46879;45.658;11.814;2023-05-07T10:37:38;5.25;;;4.22;;
60999;SDS011;46879;45.658;11.814;2023-05-07T10:42:39;11.80;;;4.50;;
60999;SDS011;46879;45.658;11.814;2023-05-07T10:48:14;8.98;;;4.65;;
60999;SDS011;46879;45.658;11.814;2023-05-07T10:58:23;6.83;;;5.00;;
60999;SDS011;46879;45.658;11.814;2023-05-07T11:03:27;6.68;;;5.10;;
60999;SDS011;46879;45.658;11.814;2023-05-07T11:08:48;12.75;;;5.63;;
60999;SDS011;46879;45.658;11.814;2023-05-07T11:13:56;9.02;;;5.35;;
60999;SDS011;46879;45.658;11.814;2023-05-07T11:18:56;6.20;;;5.57;;
60999;SDS011;46879;45.658;11.814;2023-05-07T11:23:57;6.10;;;5.47;;
60999;SDS011;46879;45.658;11.814;2023-05-07T11:28:59;7.38;;;5.65;;
60999;SDS011;46879;45.658;11.814;2023-05-07T11:34:00;8.60;;;5.40;;
60999;SDS011;46879;45.658;11.814;2023-05-07T11:39:01;8.45;;;5.30;;
60999;SDS011;46879;45.658;11.814;2023-05-07T11:44:02;5.53;;;4.90;;
60999;SDS011;46879;45.658;11.814;2023-05-07T11:49:02;4.65;;;4.10;;
60999;SDS011;46879;45.658;11.814;2023-05-07T11:54:03;8.93;;;5.10;;
60999;SDS011;46879;45.658;11.814;2023-05-07T11:59:08;8.43;;;4.65;;
60999;SDS011;46879;45.658;11.814;2023-05-07T12:04:09;6.15;;;4.70;;
60999;SDS011;46879;45.658;11.814;2023-05-07T12:09:09;4.90;;;4.50;;
60999;SDS011;46879;45.658;11.814;2023-05-07T12:14:11;6.18;;;4.40;;
60999;SDS011;46879;45.658;11.814;2023-05-07T12:19:13;5.90;;;5.05;;
60999;SDS011;46879;45.658;11.814;2023-05-07T12:24:14;10.77;;;4.97;;
60999;SDS011;46879;45.658;11.814;2023-05-07T12:29:15;9.48;;;5.57;;
60999;SDS011;46879;45.658;11.814;2023-05-07T12:34:15;11.70;;;4.90;;
60999;SDS011;46879;45.658;11.814;2023-05-07T12:39:16;10.02;;;4.93;;
60999;SDS011;46879;45.658;11.814;2023-05-07T12:44:17;7.30;;;5.63;;
60999;SDS011;46879;45.658;11.814;2023-05-07T12:49:17;7.10;;;5.50;;
60999;SDS011;46879;45.658;11.814;2023-05-07T12:54:30;9.70;;;5.38;;
60999;SDS011;46879;45.658;11.814;2023-05-07T12:59:38;7.85;;;5.97;;
60999;SDS011;46879;45.658;11.814;2023-05-07T13:04:40;8.05;;;6.78;;
60999;SDS011;46879;45.658;11.814;2023-05-07T13:09:41;7.30;;;6.43;;
60999;SDS011;46879;45.658;11.814;2023-05-07T13:14:42;9.95;;;6.38;;
60999;SDS011;46879;45.658;11.814;2023-05-07T13:19:42;11.93;;;6.43;;
60999;SDS011;46879;45.658;11.814;2023-05-07T13:25:04;12.18;;;7.85;;
60999;SDS011;46879;45.658;11.814;2023-05-07T13:30:05;12.48;;;6.32;;
60999;SDS011;46879;45.658;11.814;2023-05-07T13:35:07;8.32;;;6.50;;
60999;SDS011;46879;45.658;11.814;2023-05-07T13:40:08;11.95;;;8.18;;
60999;SDS011;46879;45.658;11.814;2023-05-07T13:45:09;11.18;;;7.40;;
60999;SDS011;46879;45.658;11.814;2023-05-07T13:50:10;8.85;;;6.82;;
60999;SDS011;46879;45.658;11.814;2023-05-07T13:55:13;8.73;;;7.22;;
60999;SDS011;46879;45.658;11.814;2023-05-07T14:00:14;11.30;;;7.15;;
60999;SDS011;46879;45.658;11.814;2023-05-07T14:05:16;11.48;;;7.88;;
60999;SDS011;46879;45.658;11.814;2023-05-07T14:10:17;10.57;;;7.72;;
60999;SDS011;46879;45.658;11.814;2023-05-07T14:15:19;9.85;;;8.68;;
60999;SDS011;46879;45.658;11.814;2023-05-07T14:20:20;11.65;;;8.50;;
60999;SDS011;46879;45.658;11.814;2023-05-07T14:25:20;10.88;;;7.30;;
60999;SDS011;46879;45.658;11.814;2023-05-07T14:30:21;8.43;;;7.10;;
60999;SDS011;46879;45.658;11.814;2023-05-07T14:35:24;11.35;;;7.30;;
60999;SDS011;46879;45.658;11.814;2023-05-07T14:40:24;8.95;;;8.07;;
60999;SDS011;46879;45.658;11.814;2023-05-07T14:45:25;16.42;;;8.18;;
60999;SDS011;46879;45.658;11.814;2023-05-07T14:50:26;10.10;;;8.55;;
60999;SDS011;46879;45.658;11.814;2023-05-07T14:55:27;12.57;;;8.73;;
60999;SDS011;46879;45.658;11.814;2023-05-07T15:00:27;11.15;;;8.73;;
60999;SDS011;46879;45.658;11.814;2023-05-07T15:05:28;9.88;;;8.23;;
60999;SDS011;46879;45.658;11.814;2023-05-07T15:10:29;11.88;;;7.97;;
60999;SDS011;46879;45.658;11.814;2023-05-07T15:15:29;13.57;;;8.63;;
60999;SDS011;46879;45.658;11.814;2023-05-07T15:20:31;11.05;;;8.48;;
60999;SDS011;46879;45.658;11.814;2023-05-07T15:25:41;11.38;;;7.97;;
60999;SDS011;46879;45.658;11.814;2023-05-07T15:30:41;9.63;;;8.73;;
60999;SDS011;46879;45.658;11.814;2023-05-07T15:35:42;10.68;;;8.85;;
60999;SDS011;46879;45.658;11.814;2023-05-07T15:40:42;13.32;;;8.77;;
60999;SDS011;46879;45.658;11.814;2023-05-07T15:45:43;9.20;;;8.30;;
60999;SDS011;46879;45.658;11.814;2023-05-07T15:50:44;11.27;;;8.38;;
60999;SDS011;46879;45.658;11.814;2023-05-07T15:55:45;11.45;;;7.65;;
60999;SDS011;46879;45.658;11.814;2023-05-07T16:00:47;10.90;;;8.35;;
60999;SDS011;46879;45.658;11.814;2023-05-07T16:05:47;12.50;;;8.98;;
60999;SDS011;46879;45.658;11.814;2023-05-07T16:10:48;10.60;;;8.60;;
60999;SDS011;46879;45.658;11.814;2023-05-07T16:15:49;10.63;;;8.65;;
60999;SDS011;46879;45.658;11.814;2023-05-07T16:20:49;12.77;;;9.13;;
60999;SDS011;46879;45.658;11.814;2023-05-07T16:25:50;10.43;;;7.40;;
60999;SDS011;46879;45.658;11.814;2023-05-07T16:30:50;9.43;;;6.22;;
60999;SDS011;46879;45.658;11.814;2023-05-07T16:35:51;5.70;;;5.00;;
60999;SDS011;46879;45.658;11.814;2023-05-07T16:40:53;6.15;;;4.30;;
60999;SDS011;46879;45.658;11.814;2023-05-07T16:45:53;7.05;;;4.30;;
60999;SDS011;46879;45.658;11.814;2023-05-07T16:50:54;4.47;;;4.07;;
60999;SDS011;46879;45.658;11.814;2023-05-07T16:55:54;7.43;;;4.38;;
60999;SDS011;46879;45.658;11.814;2023-05-07T17:00:55;4.53;;;3.67;;
60999;SDS011;46879;45.658;11.814;2023-05-07T17:05:56;5.70;;;3.92;;
60999;SDS011;46879;45.658;11.814;2023-05-07T17:10:56;5.20;;;3.88;;
60999;SDS011;46879;45.658;11.814;2023-05-07T17:15:57;5.60;;;3.83;;
60999;SDS011;46879;45.658;11.814;2023-05-07T17:20:58;5.78;;;3.80;;
60999;SDS011;46879;45.658;11.814;2023-05-07T17:25:58;4.57;;;4.03;;
60999;SDS011;46879;45.658;11.814;2023-05-07T17:30:59;6.78;;;3.40;;
60999;SDS011;46879;45.658;11.814;2023-05-07T17:36:01;4.97;;;4.07;;
60999;SDS011;46879;45.658;11.814;2023-05-07T17:41:02;12.82;;;5.57;;
60999;SDS011;46879;45.658;11.814;2023-05-07T17:46:03;14.93;;;5.80;;
60999;SDS011;46879;45.658;11.814;2023-05-07T17:51:03;17.35;;;4.93;;
60999;SDS011;46879;45.658;11.814;2023-05-07T17:56:04;5.28;;;4.57;;
60999;SDS011;46879;45.658;11.814;2023-05-07T18:01:04;7.95;;;5.30;;
60999;SDS011;46879;45.658;11.814;2023-05-07T18:06:05;6.88;;;4.88;;
60999;SDS011;46879;45.658;11.814;2023-05-07T18:11:06;16.75;;;5.53;;
60999;SDS011;46879;45.658;11.814;2023-05-07T18:16:06;37.08;;;6.53;;
60999;SDS011;46879;45.658;11.814;2023-05-07T18:21:08;18.05;;;6.35;;
60999;SDS011;46879;45.658;11.814;2023-05-07T18:26:14;9.73;;;4.75;;
60999;SDS011;46879;45.658;11.814;2023-05-07T18:31:14;7.88;;;5.05;;
60999;SDS011;46879;45.658;11.814;2023-05-07T18:36:15;7.40;;;4.43;;
60999;SDS011;46879;45.658;11.814;2023-05-07T18:41:16;11.48;;;5.50;;
60999;SDS011;46879;45.658;11.814;2023-05-07T18:46:16;7.10;;;4.57;;
60999;SDS011;46879;45.658;11.814;2023-05-07T18:51:17;8.90;;;4.07;;
60999;SDS011;46879;45.658;11.814;2023-05-07T18:56:17;5.22;;;4.13;;
60999;SDS011;46879;45.658;11.814;2023-05-07T19:01:18;6.85;;;4.20;;
60999;SDS011;46879;45.658;11.814;2023-05-07T19:06:18;10.95;;;5.20;;
60999;SDS011;46879;45.658;11.814;2023-05-07T19:11:21;11.10;;;5.10;;
60999;SDS011;46879;45.658;11.814;2023-05-07T19:16:22;7.95;;;5.30;;
60999;SDS011;46879;45.658;11.814;2023-05-07T19:21:23;10.68;;;5.10;;
60999;SDS011;46879;45.658;11.814;2023-05-07T19:26:24;8.05;;;5.45;;
60999;SDS011;46879;45.658;11.814;2023-05-07T19:31:25;7.80;;;5.15;;
60999;SDS011;46879;45.658;11.814;2023-05-07T19:36:26;8.07;;;6.72;;
60999;SDS011;46879;45.658;11.814;2023-05-07T19:41:27;8.55;;;7.75;;
60999;SDS011;46879;45.658;11.814;2023-05-07T19:46:28;12.25;;;6.97;;
60999;SDS011;46879;45.658;11.814;2023-05-07T19:51:29;7.50;;;6.18;;
60999;SDS011;46879;45.658;11.814;2023-05-07T19:56:31;9.95;;;5.75;;
60999;SDS011;46879;45.658;11.814;2023-05-07T20:01:32;8.32;;;6.20;;
60999;SDS011;46879;45.658;11.814;2023-05-07T20:06:33;8.27;;;6.50;;
60999;SDS011;46879;45.658;11.814;2023-05-07T20:11:34;12.68;;;6.07;;
60999;SDS011;46879;45.658;11.814;2023-05-07T20:16:34;11.63;;;6.72;;
60999;SDS011;46879;45.658;11.814;2023-05-07T20:21:35;12.50;;;6.95;;
60999;SDS011;46879;45.658;11.814;2023-05-07T20:26:36;10.95;;;6.88;;
60999;SDS011;46879;45.658;11.814;2023-05-07T20:31:37;18.48;;;7.35;;
60999;SDS011;46879;45.658;11.814;2023-05-07T20:36:38;15.02;;;7.47;;
60999;SDS011;46879;45.658;11.814;2023-05-07T20:41:39;15.75;;;6.38;;
60999;SDS011;46879;45.658;11.814;2023-05-07T20:46:40;14.88;;;6.90;;
60999;SDS011;46879;45.658;11.814;2023-05-07T20:51:40;17.00;;;7.72;;
60999;SDS011;46879;45.658;11.814;2023-05-07T20:56:41;14.77;;;8.20;;
60999;SDS011;46879;45.658;11.814;2023-05-07T21:01:41;10.90;;;7.38;;
60999;SDS011;46879;45.658;11.814;2023-05-07T21:06:42;11.77;;;7.38;;
60999;SDS011;46879;45.658;11.814;2023-05-07T21:11:43;16.25;;;7.13;;
60999;SDS011;46879;45.658;11.814;2023-05-07T21:16:44;10.65;;;6.80;;
60999;SDS011;46879;45.658;11.814;2023-05-07T21:21:45;14.93;;;6.88;;
60999;SDS011;46879;45.658;11.814;2023-05-07T21:26:45;10.80;;;6.50;;
60999;SDS011;46879;45.658;11.814;2023-05-07T21:31:46;10.65;;;6.18;;
60999;SDS011;46879;45.658;11.814;2023-05-07T21:36:47;10.52;;;5.85;;
60999;SDS011;46879;45.658;11.814;2023-05-07T21:41:48;12.43;;;6.10;;
60999;SDS011;46879;45.658;11.814;2023-05-07T21:46:49;9.98;;;5.80;;
60999;SDS011;46879;45.658;11.814;2023-05-07T21:51:50;7.70;;;5.18;;
60999;SDS011;46879;45.658;11.814;2023-05-07T21:56:50;8.30;;;4.88;;
60999;SDS011;46879;45.658;11.814;2023-05-07T22:01:51;9.00;;;5.00;;
60999;SDS011;46879;45.658;11.814;2023-05-07T22:06:51;7.30;;;5.60;;
60999;SDS011;46879;45.658;11.814;2023-05-07T22:11:52;8.52;;;5.60;;
60999;SDS011;46879;45.658;11.814;2023-05-07T22:16:54;6.95;;;4.90;;
60999;SDS011;46879;45.658;11.814;2023-05-07T22:21:54;7.68;;;4.72;;
60999;SDS011;46879;45.658;11.814;2023-05-07T22:26:55;6.00;;;4.50;;
60999;SDS011;46879;45.658;11.814;2023-05-07T22:31:56;7.57;;;4.65;;
60999;SDS011;46879;45.658;11.814;2023-05-07T22:36:57;7.80;;;5.00;;
60999;SDS011;46879;45.658;11.814;2023-05-07T22:41:57;7.15;;;5.18;;
60999;SDS011;46879;45.658;11.814;2023-05-07T22:46:58;7.93;;;5.53;;
60999;SDS011;46879;45.658;11.814;2023-05-07T22:51:58;6.35;;;5.10;;
60999;SDS011;46879;45.658;11.814;2023-05-07T22:56:59;7.28;;;4.45;;
60999;SDS011;46879;45.658;11.814;2023-05-07T23:02:00;8.65;;;4.65;;
60999;SDS011;46879;45.658;11.814;2023-05-07T23:07:01;5.43;;;4.50;;
60999;SDS011;46879;45.658;11.814;2023-05-07T23:12:02;7.95;;;4.65;;
60999;SDS011;46879;45.658;11.814;2023-05-07T23:17:03;6.47;;;4.47;;
60999;SDS011;46879;45.658;11.814;2023-05-07T23:22:04;6.90;;;4.32;;
60999;SDS011;46879;45.658;11.814;2023-05-07T23:27:05;8.48;;;4.10;;
60999;SDS011;46879;45.658;11.814;2023-05-07T23:32:06;5.15;;;4.40;;
60999;SDS011;46879;45.658;11.814;2023-05-07T23:37:07;10.50;;;4.60;;
60999;SDS011;46879;45.658;11.814;2023-05-07T23:42:09;4.88;;;4.00;;
60999;SDS011;46879;45.658;11.814;2023-05-07T23:47:09;5.20;;;3.97;;
60999;SDS011;46879;45.658;11.814;2023-05-07T23:52:10;6.35;;;4.45;;
60999;SDS011;46879;45.658;11.814;2023-05-07T23:57:11;5.50;;;4.10;;
